sensor_id;sensor_type;location;lat;lon;timestamp;pressure;altitude;pressure_sealevel;temperature;humidity
74065;BME280;62421;51.412;5.432;2023-08-06T00:00:30;100215.81;;;14.32;100.00
74065;BME280;62421;51.412;5.432;2023-08-06T00:02:55;100227.63;;;14.31;100.00
74065;BME280;62421;51.412;5.432;2023-08-06T00:05:21;100221.94;;;14.34;100.00
74065;BME280;62421;51.412;5.432;2023-08-06T00:07:49;100224.63;;;14.34;100.00
74065;BME280;62421;51.412;5.432;2023-08-06T00:10:16;100224.63;;;14.34;100.00
74065;BME280;62421;51.412;5.432;2023-08-06T00:12:42;100228.03;;;14.36;100.00
74065;BME280;62421;51.412;5.432;2023-08-06T00:15:08;100234.28;;;14.37;100.00
74065;BME280;62421;51.412;5.432;2023-08-06T00:17:34;100227.91;;;14.38;100.00
74065;BME280;62421;51.412;5.432;2023-08-06T00:20:00;100219.94;;;14.36;100.00
74065;BME280;62421;51.412;5.432;2023-08-06T00:22:33;100219.94;;;14.36;100.00
74065;BME280;62421;51.412;5.432;2023-08-06T00:24:58;100217.09;;;14.38;100.00
74065;BME280;62421;51.412;5.432;2023-08-06T00:27:24;100218.63;;;14.40;100.00
74065;BME280;62421;51.412;5.432;2023-08-06T00:29:49;100215.09;;;14.40;100.00
74065;BME280;62421;51.412;5.432;2023-08-06T00:32:14;100214.41;;;14.38;100.00
74065;BME280;62421;51.412;5.432;2023-08-06T00:34:40;100225.19;;;14.38;100.00
74065;BME280;62421;51.412;5.432;2023-08-06T00:37:05;100212.41;;;14.40;100.00
74065;BME280;62421;51.412;5.432;2023-08-06T00:39:30;100216.78;;;14.41;100.00
74065;BME280;62421;51.412;5.432;2023-08-06T00:41:56;100210.69;;;14.39;100.00
74065;BME280;62421;51.412;5.432;2023-08-06T00:44:21;100211.69;;;14.38;100.00
74065;BME280;62421;51.412;5.432;2023-08-06T00:46:46;100207.13;;;14.38;100.00
74065;BME280;62421;51.412;5.432;2023-08-06T00:49:12;100209.97;;;14.37;100.00
74065;BME280;62421;51.412;5.432;2023-08-06T00:51:38;100206.28;;;14.38;100.00
74065;BME280;62421;51.412;5.432;2023-08-06T00:54:03;100211.69;;;14.38;100.00
74065;BME280;62421;51.412;5.432;2023-08-06T00:56:29;100203.72;;;14.36;100.00
74065;BME280;62421;51.412;5.432;2023-08-06T00:58:54;100213.56;;;14.37;100.00
74065;BME280;62421;51.412;5.432;2023-08-06T01:01:20;100201.88;;;14.37;100.00
74065;BME280;62421;51.412;5.432;2023-08-06T01:03:46;100201.16;;;14.34;100.00
74065;BME280;62421;51.412;5.432;2023-08-06T01:06:11;100203.88;;;14.34;100.00
74065;BME280;62421;51.412;5.432;2023-08-06T01:08:49;100202.31;;;14.32;100.00
74065;BME280;62421;51.412;5.432;2023-08-06T01:11:55;100194.38;;;14.30;100.00
74065;BME280;62421;51.412;5.432;2023-08-06T01:14:57;100198.38;;;14.26;100.00
74065;BME280;62421;51.412;5.432;2023-08-06T01:17:26;100194.81;;;14.26;100.00
74065;BME280;62421;51.412;5.432;2023-08-06T01:19:52;100199.50;;;14.24;100.00
74065;BME280;62421;51.412;5.432;2023-08-06T01:22:17;100200.50;;;14.23;100.00
74065;BME280;62421;51.412;5.432;2023-08-06T01:24:47;100208.59;;;14.23;100.00
74065;BME280;62421;51.412;5.432;2023-08-06T01:27:23;100205.19;;;14.21;100.00
74065;BME280;62421;51.412;5.432;2023-08-06T01:30:01;100196.09;;;14.22;100.00
74065;BME280;62421;51.412;5.432;2023-08-06T01:32:29;100196.09;;;14.22;100.00
74065;BME280;62421;51.412;5.432;2023-08-06T01:34:59;100192.84;;;14.18;100.00
74065;BME280;62421;51.412;5.432;2023-08-06T01:37:25;100197.53;;;14.16;100.00
74065;BME280;62421;51.412;5.432;2023-08-06T01:39:50;100190.59;;;14.13;100.00
74065;BME280;62421;51.412;5.432;2023-08-06T01:42:15;100200.81;;;14.10;100.00
74065;BME280;62421;51.412;5.432;2023-08-06T01:44:41;100202.97;;;14.06;100.00
74065;BME280;62421;51.412;5.432;2023-08-06T01:47:06;100190.75;;;14.02;100.00
74065;BME280;62421;51.412;5.432;2023-08-06T01:49:31;100191.06;;;13.99;100.00
74065;BME280;62421;51.412;5.432;2023-08-06T01:51:57;100188.78;;;13.95;100.00
74065;BME280;62421;51.412;5.432;2023-08-06T01:54:22;100190.78;;;13.92;100.00
74065;BME280;62421;51.412;5.432;2023-08-06T01:56:48;100196.44;;;13.89;100.00
74065;BME280;62421;51.412;5.432;2023-08-06T01:59:13;100192.38;;;13.85;100.00
74065;BME280;62421;51.412;5.432;2023-08-06T02:01:38;100192.63;;;13.82;100.00
74065;BME280;62421;51.412;5.432;2023-08-06T02:04:03;100193.78;;;13.80;100.00
74065;BME280;62421;51.412;5.432;2023-08-06T02:06:29;100192.22;;;13.77;100.00
74065;BME280;62421;51.412;5.432;2023-08-06T02:08:54;100195.50;;;13.71;100.00
74065;BME280;62421;51.412;5.432;2023-08-06T02:11:19;100191.97;;;13.70;100.00
74065;BME280;62421;51.412;5.432;2023-08-06T02:13:46;100199.03;;;13.71;100.00
74065;BME280;62421;51.412;5.432;2023-08-06T02:16:11;100189.97;;;13.72;100.00
74065;BME280;62421;51.412;5.432;2023-08-06T02:18:36;100191.78;;;13.72;100.00
74065;BME280;62421;51.412;5.432;2023-08-06T02:21:02;100192.66;;;13.72;100.00
74065;BME280;62421;51.412;5.432;2023-08-06T02:23:27;100184.72;;;13.71;100.00
74065;BME280;62421;51.412;5.432;2023-08-06T02:26:02;100190.94;;;13.71;100.00
74065;BME280;62421;51.412;5.432;2023-08-06T02:28:28;100196.06;;;13.75;100.00
74065;BME280;62421;51.412;5.432;2023-08-06T02:30:54;100193.38;;;13.75;100.00
74065;BME280;62421;51.412;5.432;2023-08-06T02:33:19;100195.91;;;13.76;100.00
74065;BME280;62421;51.412;5.432;2023-08-06T02:35:45;100192.38;;;13.76;100.00
74065;BME280;62421;51.412;5.432;2023-08-06T02:38:10;100186.00;;;13.77;100.00
74065;BME280;62421;51.412;5.432;2023-08-06T02:40:35;100191.09;;;13.80;100.00
74065;BME280;62421;51.412;5.432;2023-08-06T02:43:01;100189.81;;;13.84;100.00
74065;BME280;62421;51.412;5.432;2023-08-06T02:45:26;100193.22;;;13.86;100.00
74065;BME280;62421;51.412;5.432;2023-08-06T02:47:51;100189.66;;;13.85;100.00
74065;BME280;62421;51.412;5.432;2023-08-06T02:50:17;100188.97;;;13.83;100.00
74065;BME280;62421;51.412;5.432;2023-08-06T02:52:42;100187.94;;;13.84;100.00
74065;BME280;62421;51.412;5.432;2023-08-06T02:55:07;100184.53;;;13.82;100.00
74065;BME280;62421;51.412;5.432;2023-08-06T02:57:33;100180.00;;;13.83;100.00
74065;BME280;62421;51.412;5.432;2023-08-06T02:59:58;100186.25;;;13.83;100.00
74065;BME280;62421;51.412;5.432;2023-08-06T03:02:23;100181.00;;;13.82;100.00
74065;BME280;62421;51.412;5.432;2023-08-06T03:04:49;100179.00;;;13.84;100.00
74065;BME280;62421;51.412;5.432;2023-08-06T03:07:14;100182.41;;;13.86;100.00
74065;BME280;62421;51.412;5.432;2023-08-06T03:09:39;100171.63;;;13.86;100.00
74065;BME280;62421;51.412;5.432;2023-08-06T03:12:05;100174.19;;;13.87;100.00
74065;BME280;62421;51.412;5.432;2023-08-06T03:14:30;100172.47;;;13.86;100.00
74065;BME280;62421;51.412;5.432;2023-08-06T03:16:56;100180.44;;;13.88;100.00
74065;BME280;62421;51.412;5.432;2023-08-06T03:19:21;100175.75;;;13.90;100.00
74065;BME280;62421;51.412;5.432;2023-08-06T03:21:46;100177.28;;;13.92;100.00
74065;BME280;62421;51.412;5.432;2023-08-06T03:24:13;100180.69;;;13.95;100.00
74065;BME280;62421;51.412;5.432;2023-08-06T03:26:38;100178.97;;;13.93;100.00
74065;BME280;62421;51.412;5.432;2023-08-06T03:29:04;100188.09;;;13.92;100.00
74065;BME280;62421;51.412;5.432;2023-08-06T03:31:29;100176.59;;;13.90;100.00
74065;BME280;62421;51.412;5.432;2023-08-06T03:33:54;100184.69;;;13.90;100.00
74065;BME280;62421;51.412;5.432;2023-08-06T03:36:20;100180.97;;;13.91;100.00
74065;BME280;62421;51.412;5.432;2023-08-06T03:38:45;100184.69;;;13.90;100.00
74065;BME280;62421;51.412;5.432;2023-08-06T03:41:10;100181.97;;;13.90;100.00
74065;BME280;62421;51.412;5.432;2023-08-06T03:43:36;100195.34;;;13.92;100.00
74065;BME280;62421;51.412;5.432;2023-08-06T03:46:01;100181.66;;;13.93;100.00
74065;BME280;62421;51.412;5.432;2023-08-06T03:48:26;100189.50;;;13.97;100.00
74065;BME280;62421;51.412;5.432;2023-08-06T03:50:52;100187.50;;;13.99;100.00
74065;BME280;62421;51.412;5.432;2023-08-06T03:53:17;100188.22;;;14.01;100.00
74065;BME280;62421;51.412;5.432;2023-08-06T03:55:42;100184.50;;;14.02;100.00
74065;BME280;62421;51.412;5.432;2023-08-06T03:58:07;100189.91;;;14.02;100.00
74065;BME280;62421;51.412;5.432;2023-08-06T04:00:33;100189.06;;;14.01;100.00
74065;BME280;62421;51.412;5.432;2023-08-06T04:02:58;100192.72;;;14.00;100.00
74065;BME280;62421;51.412;5.432;2023-08-06T04:05:23;100193.44;;;14.02;100.00
74065;BME280;62421;51.412;5.432;2023-08-06T04:07:49;100194.59;;;14.00;100.00
74065;BME280;62421;51.412;5.432;2023-08-06T04:10:14;100200.84;;;14.00;100.00
74065;BME280;62421;51.412;5.432;2023-08-06T04:12:40;100200.00;;;14.00;100.00
74065;BME280;62421;51.412;5.432;2023-08-06T04:15:06;100203.00;;;13.97;100.00
74065;BME280;62421;51.412;5.432;2023-08-06T04:17:31;100196.03;;;13.94;100.00
74065;BME280;62421;51.412;5.432;2023-08-06T04:19:56;100203.25;;;13.93;100.00
74065;BME280;62421;51.412;5.432;2023-08-06T04:22:25;100202.41;;;13.93;100.00
74065;BME280;62421;51.412;5.432;2023-08-06T04:24:51;100206.97;;;13.92;100.00
74065;BME280;62421;51.412;5.432;2023-08-06T04:27:18;100210.53;;;13.93;100.00
74065;BME280;62421;51.412;5.432;2023-08-06T04:29:44;100208.97;;;13.90;100.00
74065;BME280;62421;51.412;5.432;2023-08-06T04:32:10;100209.94;;;13.89;100.00
74065;BME280;62421;51.412;5.432;2023-08-06T04:34:36;100216.50;;;13.87;100.00
74065;BME280;62421;51.412;5.432;2023-08-06T04:37:03;100219.19;;;13.87;100.00
74065;BME280;62421;51.412;5.432;2023-08-06T04:39:29;100221.03;;;13.86;100.00
74065;BME280;62421;51.412;5.432;2023-08-06T04:41:58;100226.31;;;13.88;100.00
74065;BME280;62421;51.412;5.432;2023-08-06T04:44:23;100211.81;;;13.89;100.00
74065;BME280;62421;51.412;5.432;2023-08-06T04:46:49;100219.75;;;13.90;100.00
74065;BME280;62421;51.412;5.432;2023-08-06T04:49:14;100227.72;;;13.92;100.00
74065;BME280;62421;51.412;5.432;2023-08-06T04:51:40;100228.56;;;13.92;100.00
74065;BME280;62421;51.412;5.432;2023-08-06T04:54:05;100224.59;;;13.97;100.00
74065;BME280;62421;51.412;5.432;2023-08-06T04:56:30;100234.66;;;14.04;100.00
74065;BME280;62421;51.412;5.432;2023-08-06T04:58:59;100229.94;;;14.16;100.00
74065;BME280;62421;51.412;5.432;2023-08-06T05:01:24;100237.72;;;14.29;100.00
74065;BME280;62421;51.412;5.432;2023-08-06T05:03:50;100238.00;;;14.36;100.00
74065;BME280;62421;51.412;5.432;2023-08-06T05:06:15;100241.97;;;14.41;100.00
74065;BME280;62421;51.412;5.432;2023-08-06T05:08:40;100243.22;;;14.47;100.00
74065;BME280;62421;51.412;5.432;2023-08-06T05:11:06;100241.91;;;14.51;100.00
74065;BME280;62421;51.412;5.432;2023-08-06T05:13:31;100242.91;;;14.60;100.00
74065;BME280;62421;51.412;5.432;2023-08-06T05:15:56;100237.75;;;14.66;100.00
74065;BME280;62421;51.412;5.432;2023-08-06T05:18:22;100245.28;;;14.72;100.00
74065;BME280;62421;51.412;5.432;2023-08-06T05:20:47;100243.69;;;14.80;100.00
74065;BME280;62421;51.412;5.432;2023-08-06T05:23:12;100254.19;;;14.83;100.00
74065;BME280;62421;51.412;5.432;2023-08-06T05:25:38;100246.34;;;14.89;100.00
74065;BME280;62421;51.412;5.432;2023-08-06T05:28:03;100259.25;;;14.95;100.00
74065;BME280;62421;51.412;5.432;2023-08-06T05:30:29;100252.56;;;15.00;100.00
74065;BME280;62421;51.412;5.432;2023-08-06T05:32:54;100268.19;;;15.06;100.00
74065;BME280;62421;51.412;5.432;2023-08-06T05:35:21;100260.84;;;15.16;100.00
74065;BME280;62421;51.412;5.432;2023-08-06T05:37:46;100263.78;;;15.23;100.00
74065;BME280;62421;51.412;5.432;2023-08-06T05:40:12;100270.06;;;15.23;100.00
74065;BME280;62421;51.412;5.432;2023-08-06T05:42:37;100272.00;;;15.31;100.00
74065;BME280;62421;51.412;5.432;2023-08-06T05:45:02;100281.00;;;15.49;100.00
74065;BME280;62421;51.412;5.432;2023-08-06T05:47:28;100282.50;;;15.62;100.00
74065;BME280;62421;51.412;5.432;2023-08-06T05:49:53;100281.63;;;15.61;100.00
74065;BME280;62421;51.412;5.432;2023-08-06T05:52:19;100283.84;;;15.66;100.00
74065;BME280;62421;51.412;5.432;2023-08-06T05:54:44;100285.38;;;15.78;100.00
74065;BME280;62421;51.412;5.432;2023-08-06T05:57:09;100280.88;;;15.87;100.00
74065;BME280;62421;51.412;5.432;2023-08-06T05:59:34;100285.19;;;15.97;100.00
74065;BME280;62421;51.412;5.432;2023-08-06T06:02:00;100295.97;;;16.07;100.00
74065;BME280;62421;51.412;5.432;2023-08-06T06:04:25;100296.66;;;16.09;100.00
74065;BME280;62421;51.412;5.432;2023-08-06T06:06:51;100296.66;;;16.09;100.00
74065;BME280;62421;51.412;5.432;2023-08-06T06:09:16;100298.66;;;16.07;100.00
74065;BME280;62421;51.412;5.432;2023-08-06T06:11:41;100307.16;;;16.12;100.00
74065;BME280;62421;51.412;5.432;2023-08-06T06:14:07;100311.25;;;16.16;100.00
74065;BME280;62421;51.412;5.432;2023-08-06T06:16:32;100313.59;;;16.11;100.00
74065;BME280;62421;51.412;5.432;2023-08-06T06:18:57;100316.84;;;15.97;100.00
74065;BME280;62421;51.412;5.432;2023-08-06T06:21:24;100321.13;;;15.82;100.00
74065;BME280;62421;51.412;5.432;2023-08-06T06:23:49;100320.69;;;15.76;100.00
74065;BME280;62421;51.412;5.432;2023-08-06T06:26:16;100330.28;;;15.71;100.00
74065;BME280;62421;51.412;5.432;2023-08-06T06:28:42;100337.47;;;15.62;100.00
74065;BME280;62421;51.412;5.432;2023-08-06T06:31:07;100345.63;;;15.52;100.00
74065;BME280;62421;51.412;5.432;2023-08-06T06:33:32;100345.94;;;15.49;100.00
74065;BME280;62421;51.412;5.432;2023-08-06T06:35:58;100352.66;;;15.45;100.00
74065;BME280;62421;51.412;5.432;2023-08-06T06:38:23;100349.47;;;15.32;100.00
74065;BME280;62421;51.412;5.432;2023-08-06T06:40:57;100356.78;;;15.12;100.00
74065;BME280;62421;51.412;5.432;2023-08-06T06:43:23;100360.69;;;15.00;100.00
74065;BME280;62421;51.412;5.432;2023-08-06T06:45:53;100359.75;;;14.91;100.00
74065;BME280;62421;51.412;5.432;2023-08-06T06:48:19;100371.72;;;14.79;100.00
74065;BME280;62421;51.412;5.432;2023-08-06T06:50:47;100370.91;;;14.59;100.00
74065;BME280;62421;51.412;5.432;2023-08-06T06:53:13;100380.72;;;14.21;100.00
74065;BME280;62421;51.412;5.432;2023-08-06T06:55:38;100381.28;;;13.85;100.00
74065;BME280;62421;51.412;5.432;2023-08-06T06:58:04;100383.31;;;13.52;100.00
74065;BME280;62421;51.412;5.432;2023-08-06T07:00:29;100391.09;;;13.36;100.00
74065;BME280;62421;51.412;5.432;2023-08-06T07:02:54;100395.28;;;13.29;100.00
74065;BME280;62421;51.412;5.432;2023-08-06T07:05:20;100390.25;;;13.15;100.00
74065;BME280;62421;51.412;5.432;2023-08-06T07:07:45;100404.53;;;13.05;100.00
74065;BME280;62421;51.412;5.432;2023-08-06T07:10:10;100404.81;;;13.02;100.00
74065;BME280;62421;51.412;5.432;2023-08-06T07:12:36;100399.22;;;12.94;100.00
74065;BME280;62421;51.412;5.432;2023-08-06T07:15:04;100414.94;;;12.89;100.00
74065;BME280;62421;51.412;5.432;2023-08-06T07:17:30;100412.78;;;12.83;100.00
74065;BME280;62421;51.412;5.432;2023-08-06T07:19:55;100416.72;;;12.79;100.00
74065;BME280;62421;51.412;5.432;2023-08-06T07:22:20;100426.66;;;12.78;100.00
74065;BME280;62421;51.412;5.432;2023-08-06T07:24:45;100432.75;;;12.80;100.00
74065;BME280;62421;51.412;5.432;2023-08-06T07:27:11;100433.50;;;12.82;100.00
74065;BME280;62421;51.412;5.432;2023-08-06T07:29:36;100439.97;;;12.80;100.00
74065;BME280;62421;51.412;5.432;2023-08-06T07:32:01;100439.00;;;12.81;100.00
74065;BME280;62421;51.412;5.432;2023-08-06T07:34:27;100438.88;;;12.82;100.00
74065;BME280;62421;51.412;5.432;2023-08-06T07:36:52;100450.09;;;12.87;100.00
74065;BME280;62421;51.412;5.432;2023-08-06T07:39:18;100455.09;;;12.92;100.00
74065;BME280;62421;51.412;5.432;2023-08-06T07:41:43;100457.66;;;12.94;100.00
74065;BME280;62421;51.412;5.432;2023-08-06T07:44:10;100469.41;;;12.93;100.00
74065;BME280;62421;51.412;5.432;2023-08-06T07:46:36;100469.16;;;12.96;100.00
74065;BME280;62421;51.412;5.432;2023-08-06T07:49:01;100475.00;;;13.01;100.00
74065;BME280;62421;51.412;5.432;2023-08-06T07:51:27;100470.47;;;13.01;100.00
74065;BME280;62421;51.412;5.432;2023-08-06T07:53:53;100480.41;;;13.01;100.00
74065;BME280;62421;51.412;5.432;2023-08-06T07:56:18;100470.75;;;12.98;100.00
74065;BME280;62421;51.412;5.432;2023-08-06T07:58:43;100472.09;;;12.93;100.00
74065;BME280;62421;51.412;5.432;2023-08-06T08:01:08;100474.81;;;12.93;100.00
74065;BME280;62421;51.412;5.432;2023-08-06T08:03:34;100477.84;;;12.99;100.00
74065;BME280;62421;51.412;5.432;2023-08-06T08:05:59;100488.69;;;13.09;100.00
74065;BME280;62421;51.412;5.432;2023-08-06T08:08:25;100484.63;;;13.15;100.00
74065;BME280;62421;51.412;5.432;2023-08-06T08:10:50;100482.34;;;13.20;100.00
74065;BME280;62421;51.412;5.432;2023-08-06T08:13:16;100482.09;;;13.23;100.00
74065;BME280;62421;51.412;5.432;2023-08-06T08:15:41;100485.16;;;13.29;100.00
74065;BME280;62421;51.412;5.432;2023-08-06T08:18:07;100491.41;;;13.30;100.00
74065;BME280;62421;51.412;5.432;2023-08-06T08:20:32;100489.00;;;13.37;100.00
74065;BME280;62421;51.412;5.432;2023-08-06T08:23:00;100496.97;;;13.38;100.00
74065;BME280;62421;51.412;5.432;2023-08-06T08:25:25;100497.38;;;13.34;100.00
74065;BME280;62421;51.412;5.432;2023-08-06T08:27:52;100507.28;;;13.33;100.00
74065;BME280;62421;51.412;5.432;2023-08-06T08:30:17;100503.63;;;13.34;100.00
74065;BME280;62421;51.412;5.432;2023-08-06T08:32:43;100509.59;;;13.38;100.00
74065;BME280;62421;51.412;5.432;2023-08-06T08:35:08;100513.72;;;13.42;100.00
74065;BME280;62421;51.412;5.432;2023-08-06T08:37:33;100514.63;;;13.52;100.00
74065;BME280;62421;51.412;5.432;2023-08-06T08:39:58;100519.06;;;13.53;100.00
74065;BME280;62421;51.412;5.432;2023-08-06T08:42:25;100521.91;;;13.61;100.00
74065;BME280;62421;51.412;5.432;2023-08-06T08:44:52;100513.50;;;13.55;100.00
74065;BME280;62421;51.412;5.432;2023-08-06T08:47:22;100516.50;;;13.61;100.00
74065;BME280;62421;51.412;5.432;2023-08-06T08:49:48;100521.28;;;13.79;100.00
74065;BME280;62421;51.412;5.432;2023-08-06T08:52:15;100519.88;;;13.84;100.00
74065;BME280;62421;51.412;5.432;2023-08-06T08:54:43;100524.56;;;13.82;100.00
74065;BME280;62421;51.412;5.432;2023-08-06T08:57:08;100522.41;;;13.76;100.00
74065;BME280;62421;51.412;5.432;2023-08-06T08:59:34;100527.25;;;13.82;100.00
74065;BME280;62421;51.412;5.432;2023-08-06T09:02:00;100529.84;;;13.84;100.00
74065;BME280;62421;51.412;5.432;2023-08-06T09:04:28;100530.81;;;13.83;100.00
74065;BME280;62421;51.412;5.432;2023-08-06T09:06:56;100531.69;;;13.83;100.00
74065;BME280;62421;51.412;5.432;2023-08-06T09:09:28;100546.69;;;13.76;100.00
74065;BME280;62421;51.412;5.432;2023-08-06T09:12:00;100545.41;;;13.70;100.00
74065;BME280;62421;51.412;5.432;2023-08-06T09:14:27;100539.53;;;13.65;100.00
74065;BME280;62421;51.412;5.432;2023-08-06T09:16:52;100560.28;;;13.65;100.00
74065;BME280;62421;51.412;5.432;2023-08-06T09:19:17;100555.72;;;13.65;100.00
74065;BME280;62421;51.412;5.432;2023-08-06T09:21:45;100565.66;;;13.65;100.00
74065;BME280;62421;51.412;5.432;2023-08-06T09:24:14;100564.22;;;13.61;100.00
74065;BME280;62421;51.412;5.432;2023-08-06T09:26:42;100566.06;;;13.60;100.00
74065;BME280;62421;51.412;5.432;2023-08-06T09:29:09;100571.88;;;13.56;100.00
74065;BME280;62421;51.412;5.432;2023-08-06T09:34:15;100584.25;;;13.58;100.00
74065;BME280;62421;51.412;5.432;2023-08-06T09:36:51;100585.81;;;13.61;100.00
74065;BME280;62421;51.412;5.432;2023-08-06T09:39:18;100602.31;;;13.67;100.00
74065;BME280;62421;51.412;5.432;2023-08-06T09:41:45;100593.97;;;13.70;100.00
74065;BME280;62421;51.412;5.432;2023-08-06T09:44:20;100595.53;;;13.73;100.00
74065;BME280;62421;51.412;5.432;2023-08-06T09:46:51;100594.13;;;13.79;100.00
74065;BME280;62421;51.412;5.432;2023-08-06T09:49:24;100600.94;;;13.73;100.00
74065;BME280;62421;51.412;5.432;2023-08-06T09:51:51;100603.50;;;13.75;100.00
74065;BME280;62421;51.412;5.432;2023-08-06T09:54:18;100603.94;;;13.80;100.00
74065;BME280;62421;51.412;5.432;2023-08-06T09:56:44;100613.38;;;13.85;100.00
74065;BME280;62421;51.412;5.432;2023-08-06T09:59:10;100615.91;;;13.87;100.00
74065;BME280;62421;51.412;5.432;2023-08-06T10:01:38;100617.47;;;13.89;100.00
74065;BME280;62421;51.412;5.432;2023-08-06T10:04:04;100622.34;;;13.96;100.00
74065;BME280;62421;51.412;5.432;2023-08-06T10:06:34;100615.97;;;13.97;100.00
74065;BME280;62421;51.412;5.432;2023-08-06T10:09:00;100621.25;;;13.98;100.00
74065;BME280;62421;51.412;5.432;2023-08-06T10:11:25;100622.53;;;14.04;100.00
74065;BME280;62421;51.412;5.432;2023-08-06T10:13:54;100620.69;;;14.04;100.00
74065;BME280;62421;51.412;5.432;2023-08-06T10:16:22;100625.09;;;14.05;100.00
74065;BME280;62421;51.412;5.432;2023-08-06T10:18:48;100620.97;;;14.11;100.00
74065;BME280;62421;51.412;5.432;2023-08-06T10:21:14;100630.38;;;14.07;100.00
74065;BME280;62421;51.412;5.432;2023-08-06T10:23:41;100629.66;;;14.05;100.00
74065;BME280;62421;51.412;5.432;2023-08-06T10:26:07;100632.34;;;14.05;100.00
74065;BME280;62421;51.412;5.432;2023-08-06T10:28:39;100635.19;;;14.03;100.00
74065;BME280;62421;51.412;5.432;2023-08-06T10:31:05;100630.03;;;14.00;100.00
74065;BME280;62421;51.412;5.432;2023-08-06T10:33:44;100626.47;;;14.00;100.00
74065;BME280;62421;51.412;5.432;2023-08-06T10:36:10;100625.91;;;13.96;100.00
74065;BME280;62421;51.412;5.432;2023-08-06T10:38:44;100624.50;;;14.02;100.00
74065;BME280;62421;51.412;5.432;2023-08-06T10:41:28;100626.13;;;14.14;100.00
74065;BME280;62421;51.412;5.432;2023-08-06T10:44:06;100633.81;;;14.19;100.00
74065;BME280;62421;51.412;5.432;2023-08-06T10:46:36;100637.53;;;14.18;100.00
74065;BME280;62421;51.412;5.432;2023-08-06T10:49:02;100628.72;;;14.25;100.00
74065;BME280;62421;51.412;5.432;2023-08-06T10:51:28;100640.69;;;14.32;100.00
74065;BME280;62421;51.412;5.432;2023-08-06T10:53:53;100645.41;;;14.40;100.00
74065;BME280;62421;51.412;5.432;2023-08-06T10:56:20;100636.34;;;14.51;100.00
74065;BME280;62421;51.412;5.432;2023-08-06T10:58:48;100635.69;;;14.59;100.00
74065;BME280;62421;51.412;5.432;2023-08-06T11:01:13;100642.53;;;14.72;100.00
74065;BME280;62421;51.412;5.432;2023-08-06T11:03:39;100639.56;;;14.76;100.00
74065;BME280;62421;51.412;5.432;2023-08-06T11:06:07;100651.78;;;14.80;100.00
74065;BME280;62421;51.412;5.432;2023-08-06T11:08:47;100645.41;;;14.81;100.00
74065;BME280;62421;51.412;5.432;2023-08-06T11:11:15;100653.38;;;14.82;100.00
74065;BME280;62421;51.412;5.432;2023-08-06T11:13:45;100653.50;;;14.81;100.00
74065;BME280;62421;51.412;5.432;2023-08-06T11:16:14;100649.50;;;14.75;100.00
74065;BME280;62421;51.412;5.432;2023-08-06T11:18:40;100645.84;;;14.76;100.00
74065;BME280;62421;51.412;5.432;2023-08-06T11:21:07;100655.50;;;14.79;100.00
74065;BME280;62421;51.412;5.432;2023-08-06T11:23:34;100659.50;;;14.84;100.00
74065;BME280;62421;51.412;5.432;2023-08-06T11:25:59;100650.81;;;14.81;100.00
74065;BME280;62421;51.412;5.432;2023-08-06T11:28:25;100655.94;;;14.84;100.00
74065;BME280;62421;51.412;5.432;2023-08-06T11:30:51;100654.81;;;14.86;100.00
74065;BME280;62421;51.412;5.432;2023-08-06T11:33:23;100653.22;;;14.84;100.00
74065;BME280;62421;51.412;5.432;2023-08-06T11:35:51;100652.81;;;14.79;100.00
74065;BME280;62421;51.412;5.432;2023-08-06T11:38:17;100661.34;;;14.84;100.00
74065;BME280;62421;51.412;5.432;2023-08-06T11:40:44;100660.91;;;14.88;100.00
74065;BME280;62421;51.412;5.432;2023-08-06T11:43:10;100652.97;;;14.87;100.00
74065;BME280;62421;51.412;5.432;2023-08-06T11:45:35;100656.22;;;14.81;100.00
74065;BME280;62421;51.412;5.432;2023-08-06T11:48:01;100656.78;;;14.74;100.00
74065;BME280;62421;51.412;5.432;2023-08-06T11:50:27;100662.59;;;14.70;100.00
74065;BME280;62421;51.412;5.432;2023-08-06T11:52:54;100664.16;;;14.63;100.00
74065;BME280;62421;51.412;5.432;2023-08-06T11:55:23;100667.84;;;14.62;100.00
74065;BME280;62421;51.412;5.432;2023-08-06T11:57:49;100664.28;;;14.61;100.00
74065;BME280;62421;51.412;5.432;2023-08-06T12:00:14;100663.88;;;14.66;100.00
74065;BME280;62421;51.412;5.432;2023-08-06T12:02:43;100663.75;;;14.67;100.00
74065;BME280;62421;51.412;5.432;2023-08-06T12:05:15;100668.13;;;14.68;100.00
74065;BME280;62421;51.412;5.432;2023-08-06T12:10:08;100668.00;;;14.70;100.00
74065;BME280;62421;51.412;5.432;2023-08-06T12:12:34;100674.69;;;14.66;100.00
74065;BME280;62421;51.412;5.432;2023-08-06T12:15:01;100681.03;;;14.55;100.00
74065;BME280;62421;51.412;5.432;2023-08-06T12:17:26;100684.97;;;14.51;100.00
74065;BME280;62421;51.412;5.432;2023-08-06T12:19:52;100681.97;;;14.44;100.00
74065;BME280;62421;51.412;5.432;2023-08-06T12:22:17;100679.56;;;14.41;100.00
74065;BME280;62421;51.412;5.432;2023-08-06T12:24:44;100684.50;;;14.36;100.00
74065;BME280;62421;51.412;5.432;2023-08-06T12:27:10;100688.19;;;14.35;100.00
74065;BME280;62421;51.412;5.432;2023-08-06T12:29:35;100691.03;;;14.33;100.00
74065;BME280;62421;51.412;5.432;2023-08-06T12:32:03;100692.88;;;14.33;100.00
74065;BME280;62421;51.412;5.432;2023-08-06T12:34:28;100695.84;;;14.30;100.00
74065;BME280;62421;51.412;5.432;2023-08-06T12:36:54;100687.41;;;14.23;100.00
74065;BME280;62421;51.412;5.432;2023-08-06T12:39:19;100686.69;;;14.21;100.00
74065;BME280;62421;51.412;5.432;2023-08-06T12:41:45;100697.50;;;14.21;100.00